sensor_id;sensor_type;location;lat;lon;timestamp;temperature;humidity
7814;DHT22;3952;48.364;16.022;2023-11-21T00:00:36;5.60;99.90
7814;DHT22;3952;48.364;16.022;2023-11-21T00:03:03;5.60;99.90
7814;DHT22;3952;48.364;16.022;2023-11-21T00:05:30;5.50;99.90
7814;DHT22;3952;48.364;16.022;2023-11-21T00:07:58;5.40;99.90
7814;DHT22;3952;48.364;16.022;2023-11-21T00:10:25;5.40;99.90
7814;DHT22;3952;48.364;16.022;2023-11-21T00:12:54;5.30;99.90
7814;DHT22;3952;48.364;16.022;2023-11-21T00:15:23;5.20;99.90
7814;DHT22;3952;48.364;16.022;2023-11-21T00:17:50;5.10;99.90
7814;DHT22;3952;48.364;16.022;2023-11-21T00:20:18;5.10;99.90
7814;DHT22;3952;48.364;16.022;2023-11-21T00:22:45;5.00;99.90
7814;DHT22;3952;48.364;16.022;2023-11-21T00:25:13;5.00;99.90
7814;DHT22;3952;48.364;16.022;2023-11-21T00:27:43;5.00;99.90
7814;DHT22;3952;48.364;16.022;2023-11-21T00:30:11;4.90;99.90
7814;DHT22;3952;48.364;16.022;2023-11-21T00:32:40;4.90;99.90
7814;DHT22;3952;48.364;16.022;2023-11-21T00:35:07;4.90;99.90
7814;DHT22;3952;48.364;16.022;2023-11-21T00:37:35;4.90;99.90
7814;DHT22;3952;48.364;16.022;2023-11-21T00:40:03;4.80;99.90
7814;DHT22;3952;48.364;16.022;2023-11-21T00:42:32;4.90;99.90
7814;DHT22;3952;48.364;16.022;2023-11-21T00:44:59;4.80;99.90
7814;DHT22;3952;48.364;16.022;2023-11-21T00:47:26;4.80;99.90
7814;DHT22;3952;48.364;16.022;2023-11-21T00:49:55;4.80;99.90
7814;DHT22;3952;48.364;16.022;2023-11-21T00:52:22;4.80;99.90
7814;DHT22;3952;48.364;16.022;2023-11-21T00:54:49;4.70;99.90
7814;DHT22;3952;48.364;16.022;2023-11-21T00:57:16;4.70;99.90
7814;DHT22;3952;48.364;16.022;2023-11-21T00:59:44;4.70;99.90
7814;DHT22;3952;48.364;16.022;2023-11-21T01:02:11;4.60;99.90
7814;DHT22;3952;48.364;16.022;2023-11-21T01:04:38;4.60;99.90
7814;DHT22;3952;48.364;16.022;2023-11-21T01:07:06;4.70;99.90
7814;DHT22;3952;48.364;16.022;2023-11-21T01:09:34;4.60;99.90
7814;DHT22;3952;48.364;16.022;2023-11-21T01:12:01;4.60;99.90
7814;DHT22;3952;48.364;16.022;2023-11-21T01:14:28;4.60;99.90
7814;DHT22;3952;48.364;16.022;2023-11-21T01:16:55;4.60;99.90
7814;DHT22;3952;48.364;16.022;2023-11-21T01:19:22;4.60;99.90
7814;DHT22;3952;48.364;16.022;2023-11-21T01:21:49;4.60;99.90
7814;DHT22;3952;48.364;16.022;2023-11-21T01:24:19;4.60;99.90
7814;DHT22;3952;48.364;16.022;2023-11-21T01:26:46;4.60;99.90
7814;DHT22;3952;48.364;16.022;2023-11-21T01:29:13;4.60;99.90
7814;DHT22;3952;48.364;16.022;2023-11-21T01:31:41;4.60;99.90
7814;DHT22;3952;48.364;16.022;2023-11-21T01:34:08;4.60;99.90
7814;DHT22;3952;48.364;16.022;2023-11-21T01:36:35;4.70;99.90
7814;DHT22;3952;48.364;16.022;2023-11-21T01:39:02;4.70;99.90
7814;DHT22;3952;48.364;16.022;2023-11-21T01:41:35;4.70;99.90
7814;DHT22;3952;48.364;16.022;2023-11-21T01:44:03;4.70;99.90
7814;DHT22;3952;48.364;16.022;2023-11-21T01:46:33;4.80;99.90
7814;DHT22;3952;48.364;16.022;2023-11-21T01:49:00;4.80;99.90
7814;DHT22;3952;48.364;16.022;2023-11-21T01:51:27;4.80;99.90
7814;DHT22;3952;48.364;16.022;2023-11-21T01:53:55;4.80;99.90
7814;DHT22;3952;48.364;16.022;2023-11-21T01:56:23;4.80;99.90
7814;DHT22;3952;48.364;16.022;2023-11-21T01:58:53;4.80;99.90
7814;DHT22;3952;48.364;16.022;2023-11-21T02:01:21;4.80;99.90
7814;DHT22;3952;48.364;16.022;2023-11-21T02:03:48;4.70;99.90
7814;DHT22;3952;48.364;16.022;2023-11-21T02:06:15;4.70;99.90
7814;DHT22;3952;48.364;16.022;2023-11-21T02:08:43;4.60;99.90
7814;DHT22;3952;48.364;16.022;2023-11-21T02:11:10;4.60;99.90
7814;DHT22;3952;48.364;16.022;2023-11-21T02:13:38;4.50;99.90
7814;DHT22;3952;48.364;16.022;2023-11-21T02:16:10;4.40;99.90
7814;DHT22;3952;48.364;16.022;2023-11-21T02:18:38;4.30;99.90
7814;DHT22;3952;48.364;16.022;2023-11-21T02:21:07;4.20;99.90
7814;DHT22;3952;48.364;16.022;2023-11-21T02:23:37;4.20;99.90
7814;DHT22;3952;48.364;16.022;2023-11-21T02:26:08;4.10;99.90
7814;DHT22;3952;48.364;16.022;2023-11-21T02:28:35;4.00;99.90
7814;DHT22;3952;48.364;16.022;2023-11-21T02:31:04;3.90;99.90
7814;DHT22;3952;48.364;16.022;2023-11-21T02:33:33;3.90;99.90
7814;DHT22;3952;48.364;16.022;2023-11-21T02:36:00;3.80;99.90
7814;DHT22;3952;48.364;16.022;2023-11-21T02:38:28;3.90;99.90
7814;DHT22;3952;48.364;16.022;2023-11-21T02:40:57;3.80;99.90
7814;DHT22;3952;48.364;16.022;2023-11-21T02:43:25;3.80;99.90
7814;DHT22;3952;48.364;16.022;2023-11-21T02:45:52;3.90;99.90
7814;DHT22;3952;48.364;16.022;2023-11-21T02:48:19;3.80;99.90
7814;DHT22;3952;48.364;16.022;2023-11-21T02:50:49;3.70;99.90
7814;DHT22;3952;48.364;16.022;2023-11-21T02:53:19;3.70;99.90
7814;DHT22;3952;48.364;16.022;2023-11-21T02:55:46;3.70;99.90
7814;DHT22;3952;48.364;16.022;2023-11-21T02:58:14;3.60;99.90
7814;DHT22;3952;48.364;16.022;2023-11-21T03:00:42;3.60;99.90
7814;DHT22;3952;48.364;16.022;2023-11-21T03:03:09;3.50;99.90
7814;DHT22;3952;48.364;16.022;2023-11-21T03:05:36;3.40;99.90
7814;DHT22;3952;48.364;16.022;2023-11-21T03:08:04;3.50;99.90
7814;DHT22;3952;48.364;16.022;2023-11-21T03:10:31;3.40;99.90
7814;DHT22;3952;48.364;16.022;2023-11-21T03:12:58;3.40;99.90
7814;DHT22;3952;48.364;16.022;2023-11-21T03:15:27;3.40;99.90
7814;DHT22;3952;48.364;16.022;2023-11-21T03:17:54;3.40;99.90
7814;DHT22;3952;48.364;16.022;2023-11-21T03:20:22;3.50;99.90
7814;DHT22;3952;48.364;16.022;2023-11-21T03:22:49;3.40;99.90
7814;DHT22;3952;48.364;16.022;2023-11-21T03:25:17;3.40;99.90
7814;DHT22;3952;48.364;16.022;2023-11-21T03:27:44;3.40;99.90
7814;DHT22;3952;48.364;16.022;2023-11-21T03:30:11;3.40;99.90
7814;DHT22;3952;48.364;16.022;2023-11-21T03:32:40;3.30;99.90
7814;DHT22;3952;48.364;16.022;2023-11-21T03:35:07;3.30;99.90
7814;DHT22;3952;48.364;16.022;2023-11-21T03:37:35;3.30;99.90
7814;DHT22;3952;48.364;16.022;2023-11-21T03:40:05;3.30;99.90
7814;DHT22;3952;48.364;16.022;2023-11-21T03:42:34;3.30;99.90
7814;DHT22;3952;48.364;16.022;2023-11-21T03:45:01;3.30;99.90
7814;DHT22;3952;48.364;16.022;2023-11-21T03:47:29;3.30;99.90
7814;DHT22;3952;48.364;16.022;2023-11-21T03:49:58;3.30;99.90
7814;DHT22;3952;48.364;16.022;2023-11-21T03:52:25;3.40;99.90
7814;DHT22;3952;48.364;16.022;2023-11-21T03:54:54;3.40;99.90
7814;DHT22;3952;48.364;16.022;2023-11-21T03:57:21;3.30;99.90
7814;DHT22;3952;48.364;16.022;2023-11-21T03:59:49;3.30;99.90
7814;DHT22;3952;48.364;16.022;2023-11-21T04:02:16;3.30;99.90
7814;DHT22;3952;48.364;16.022;2023-11-21T04:04:43;3.40;99.90
7814;DHT22;3952;48.364;16.022;2023-11-21T04:07:12;3.40;99.90
7814;DHT22;3952;48.364;16.022;2023-11-21T04:09:39;3.30;99.90
7814;DHT22;3952;48.364;16.022;2023-11-21T04:12:07;3.30;99.90
7814;DHT22;3952;48.364;16.022;2023-11-21T04:14:35;3.30;99.90
7814;DHT22;3952;48.364;16.022;2023-11-21T04:17:03;4.10;99.90
7814;DHT22;3952;48.364;16.022;2023-11-21T04:19:30;3.30;99.90
7814;DHT22;3952;48.364;16.022;2023-11-21T04:21:57;3.30;99.90
7814;DHT22;3952;48.364;16.022;2023-11-21T04:24:26;3.30;99.90
7814;DHT22;3952;48.364;16.022;2023-11-21T04:26:53;3.20;99.90
7814;DHT22;3952;48.364;16.022;2023-11-21T04:29:20;3.20;99.90
7814;DHT22;3952;48.364;16.022;2023-11-21T04:31:48;3.20;99.90
7814;DHT22;3952;48.364;16.022;2023-11-21T04:34:16;3.30;99.90
7814;DHT22;3952;48.364;16.022;2023-11-21T04:36:43;3.30;99.90
7814;DHT22;3952;48.364;16.022;2023-11-21T04:39:10;3.30;99.90
7814;DHT22;3952;48.364;16.022;2023-11-21T04:41:39;3.30;99.90
7814;DHT22;3952;48.364;16.022;2023-11-21T04:44:07;3.20;99.90
7814;DHT22;3952;48.364;16.022;2023-11-21T04:46:34;3.20;99.90
7814;DHT22;3952;48.364;16.022;2023-11-21T04:49:01;3.20;99.90
7814;DHT22;3952;48.364;16.022;2023-11-21T04:51:28;3.20;99.90
7814;DHT22;3952;48.364;16.022;2023-11-21T04:53:57;3.20;99.90
7814;DHT22;3952;48.364;16.022;2023-11-21T04:56:25;3.20;99.90
7814;DHT22;3952;48.364;16.022;2023-11-21T04:58:54;3.20;99.90
7814;DHT22;3952;48.364;16.022;2023-11-21T05:01:21;3.20;99.90
7814;DHT22;3952;48.364;16.022;2023-11-21T05:03:49;3.20;99.90
7814;DHT22;3952;48.364;16.022;2023-11-21T05:06:16;3.10;99.90
7814;DHT22;3952;48.364;16.022;2023-11-21T05:08:43;3.10;99.90
7814;DHT22;3952;48.364;16.022;2023-11-21T05:11:10;3.00;99.90
7814;DHT22;3952;48.364;16.022;2023-11-21T05:13:37;3.00;99.90
7814;DHT22;3952;48.364;16.022;2023-11-21T05:16:07;3.00;99.90
7814;DHT22;3952;48.364;16.022;2023-11-21T05:18:34;3.00;99.90
7814;DHT22;3952;48.364;16.022;2023-11-21T05:21:02;3.10;99.90
7814;DHT22;3952;48.364;16.022;2023-11-21T05:23:30;3.00;99.90
7814;DHT22;3952;48.364;16.022;2023-11-21T05:25:57;3.00;99.90
7814;DHT22;3952;48.364;16.022;2023-11-21T05:28:25;3.00;99.90
7814;DHT22;3952;48.364;16.022;2023-11-21T05:30:52;2.90;99.90
7814;DHT22;3952;48.364;16.022;2023-11-21T05:33:22;2.90;99.90
7814;DHT22;3952;48.364;16.022;2023-11-21T05:35:49;2.90;99.90
7814;DHT22;3952;48.364;16.022;2023-11-21T05:38:16;2.40;99.90
7814;DHT22;3952;48.364;16.022;2023-11-21T05:40:43;2.80;99.90
7814;DHT22;3952;48.364;16.022;2023-11-21T05:43:10;2.80;99.90
7814;DHT22;3952;48.364;16.022;2023-11-21T05:45:38;2.80;99.90
7814;DHT22;3952;48.364;16.022;2023-11-21T05:48:05;2.80;99.90
7814;DHT22;3952;48.364;16.022;2023-11-21T05:50:34;2.80;99.90
7814;DHT22;3952;48.364;16.022;2023-11-21T05:53:01;2.80;99.90
7814;DHT22;3952;48.364;16.022;2023-11-21T05:55:28;2.90;99.90
7814;DHT22;3952;48.364;16.022;2023-11-21T05:57:55;2.90;99.90
7814;DHT22;3952;48.364;16.022;2023-11-21T06:00:22;3.00;99.90
7814;DHT22;3952;48.364;16.022;2023-11-21T06:02:52;3.00;99.90
7814;DHT22;3952;48.364;16.022;2023-11-21T06:05:21;3.00;99.90
7814;DHT22;3952;48.364;16.022;2023-11-21T06:07:52;3.10;99.90
7814;DHT22;3952;48.364;16.022;2023-11-21T06:10:20;3.10;99.90
7814;DHT22;3952;48.364;16.022;2023-11-21T06:12:49;3.20;99.90
7814;DHT22;3952;48.364;16.022;2023-11-21T06:15:17;3.20;99.90
7814;DHT22;3952;48.364;16.022;2023-11-21T06:17:45;3.30;99.90
7814;DHT22;3952;48.364;16.022;2023-11-21T06:20:15;3.30;99.90
7814;DHT22;3952;48.364;16.022;2023-11-21T06:22:45;3.30;99.90
7814;DHT22;3952;48.364;16.022;2023-11-21T06:25:14;3.30;99.90
7814;DHT22;3952;48.364;16.022;2023-11-21T06:27:42;3.30;99.90
7814;DHT22;3952;48.364;16.022;2023-11-21T06:30:11;3.40;99.90
7814;DHT22;3952;48.364;16.022;2023-11-21T06:32:39;3.40;99.90
7814;DHT22;3952;48.364;16.022;2023-11-21T06:35:07;3.50;99.90
7814;DHT22;3952;48.364;16.022;2023-11-21T06:37:36;3.60;99.90
7814;DHT22;3952;48.364;16.022;2023-11-21T06:40:04;3.60;99.90
7814;DHT22;3952;48.364;16.022;2023-11-21T06:42:33;3.70;99.90
7814;DHT22;3952;48.364;16.022;2023-11-21T06:45:00;3.70;99.90
7814;DHT22;3952;48.364;16.022;2023-11-21T06:47:30;5.20;99.90
7814;DHT22;3952;48.364;16.022;2023-11-21T06:49:58;3.80;99.90
7814;DHT22;3952;48.364;16.022;2023-11-21T06:52:25;3.80;99.90
7814;DHT22;3952;48.364;16.022;2023-11-21T06:54:53;3.90;99.90
7814;DHT22;3952;48.364;16.022;2023-11-21T06:57:20;3.90;99.90
7814;DHT22;3952;48.364;16.022;2023-11-21T06:59:49;3.90;99.90
7814;DHT22;3952;48.364;16.022;2023-11-21T07:02:16;3.90;99.90
7814;DHT22;3952;48.364;16.022;2023-11-21T07:04:44;4.00;99.90
7814;DHT22;3952;48.364;16.022;2023-11-21T07:07:12;4.10;99.90
7814;DHT22;3952;48.364;16.022;2023-11-21T07:09:39;4.10;99.90
7814;DHT22;3952;48.364;16.022;2023-11-21T07:12:07;4.10;99.90
7814;DHT22;3952;48.364;16.022;2023-11-21T07:14:34;4.20;99.90
7814;DHT22;3952;48.364;16.022;2023-11-21T07:17:04;4.40;99.90
7814;DHT22;3952;48.364;16.022;2023-11-21T07:19:32;4.50;99.90
7814;DHT22;3952;48.364;16.022;2023-11-21T07:22:00;4.60;99.90
7814;DHT22;3952;48.364;16.022;2023-11-21T07:24:27;4.60;99.90
7814;DHT22;3952;48.364;16.022;2023-11-21T07:26:54;4.70;99.90
7814;DHT22;3952;48.364;16.022;2023-11-21T07:29:23;4.80;99.90
7814;DHT22;3952;48.364;16.022;2023-11-21T07:31:51;4.90;99.90
7814;DHT22;3952;48.364;16.022;2023-11-21T07:34:20;5.00;99.90
7814;DHT22;3952;48.364;16.022;2023-11-21T07:36:47;5.10;99.90
7814;DHT22;3952;48.364;16.022;2023-11-21T07:39:15;5.10;99.90
7814;DHT22;3952;48.364;16.022;2023-11-21T07:41:42;5.30;99.90
7814;DHT22;3952;48.364;16.022;2023-11-21T07:44:15;5.40;99.90
7814;DHT22;3952;48.364;16.022;2023-11-21T07:46:43;5.90;99.90
7814;DHT22;3952;48.364;16.022;2023-11-21T07:49:10;6.60;99.90
7814;DHT22;3952;48.364;16.022;2023-11-21T07:51:39;6.80;99.90
7814;DHT22;3952;48.364;16.022;2023-11-21T07:54:06;6.80;99.90
7814;DHT22;3952;48.364;16.022;2023-11-21T07:56:33;6.90;99.90
7814;DHT22;3952;48.364;16.022;2023-11-21T07:59:00;8.00;99.90
7814;DHT22;3952;48.364;16.022;2023-11-21T08:01:27;9.60;99.90
7814;DHT22;3952;48.364;16.022;2023-11-21T08:03:55;10.40;99.90
7814;DHT22;3952;48.364;16.022;2023-11-21T08:06:24;10.30;99.90
7814;DHT22;3952;48.364;16.022;2023-11-21T08:08:53;9.80;99.90
7814;DHT22;3952;48.364;16.022;2023-11-21T08:11:21;9.30;99.90
7814;DHT22;3952;48.364;16.022;2023-11-21T08:13:48;9.00;99.90
7814;DHT22;3952;48.364;16.022;2023-11-21T08:16:15;8.70;99.90
7814;DHT22;3952;48.364;16.022;2023-11-21T08:18:42;8.30;99.90
7814;DHT22;3952;48.364;16.022;2023-11-21T08:21:12;8.10;99.90
7814;DHT22;3952;48.364;16.022;2023-11-21T08:23:39;8.00;99.90
7814;DHT22;3952;48.364;16.022;2023-11-21T08:26:07;7.90;99.90
7814;DHT22;3952;48.364;16.022;2023-11-21T08:28:35;7.80;99.90
7814;DHT22;3952;48.364;16.022;2023-11-21T08:31:03;7.70;99.90
7814;DHT22;3952;48.364;16.022;2023-11-21T08:33:30;7.60;99.90
7814;DHT22;3952;48.364;16.022;2023-11-21T08:35:57;7.50;99.90
7814;DHT22;3952;48.364;16.022;2023-11-21T08:38:27;7.50;99.90
7814;DHT22;3952;48.364;16.022;2023-11-21T08:40:54;7.40;99.90
7814;DHT22;3952;48.364;16.022;2023-11-21T08:43:23;7.40;99.90
7814;DHT22;3952;48.364;16.022;2023-11-21T08:45:51;7.30;99.90
7814;DHT22;3952;48.364;16.022;2023-11-21T08:48:18;7.20;99.90
7814;DHT22;3952;48.364;16.022;2023-11-21T08:50:45;7.20;99.90
7814;DHT22;3952;48.364;16.022;2023-11-21T08:53:12;7.20;99.90
7814;DHT22;3952;48.364;16.022;2023-11-21T08:55:39;7.20;99.90
7814;DHT22;3952;48.364;16.022;2023-11-21T08:58:07;7.20;99.90
7814;DHT22;3952;48.364;16.022;2023-11-21T09:00:35;7.30;99.90
7814;DHT22;3952;48.364;16.022;2023-11-21T09:03:03;7.30;99.90
7814;DHT22;3952;48.364;16.022;2023-11-21T09:05:37;7.30;99.90
7814;DHT22;3952;48.364;16.022;2023-11-21T09:08:04;7.30;99.90
7814;DHT22;3952;48.364;16.022;2023-11-21T09:10:33;7.30;99.90
7814;DHT22;3952;48.364;16.022;2023-11-21T09:13:02;7.30;99.90
7814;DHT22;3952;48.364;16.022;2023-11-21T09:15:29;7.40;99.90
7814;DHT22;3952;48.364;16.022;2023-11-21T09:17:58;7.40;99.90
7814;DHT22;3952;48.364;16.022;2023-11-21T09:20:25;7.50;99.90
7814;DHT22;3952;48.364;16.022;2023-11-21T09:22:52;7.50;99.90
7814;DHT22;3952;48.364;16.022;2023-11-21T09:25:21;7.60;99.90
7814;DHT22;3952;48.364;16.022;2023-11-21T09:27:48;7.60;99.90
7814;DHT22;3952;48.364;16.022;2023-11-21T09:30:16;7.70;99.90
7814;DHT22;3952;48.364;16.022;2023-11-21T09:32:43;7.70;99.90
7814;DHT22;3952;48.364;16.022;2023-11-21T09:35:12;7.90;99.90
7814;DHT22;3952;48.364;16.022;2023-11-21T09:37:40;8.00;99.90
7814;DHT22;3952;48.364;16.022;2023-11-21T09:40:10;8.20;99.90
7814;DHT22;3952;48.364;16.022;2023-11-21T09:42:41;8.40;99.90
7814;DHT22;3952;48.364;16.022;2023-11-21T09:45:17;8.60;99.90
7814;DHT22;3952;48.364;16.022;2023-11-21T09:47:47;8.80;99.90
7814;DHT22;3952;48.364;16.022;2023-11-21T09:50:17;9.00;99.90
7814;DHT22;3952;48.364;16.022;2023-11-21T09:52:53;9.10;99.90
7814;DHT22;3952;48.364;16.022;2023-11-21T09:55:22;9.20;99.90
7814;DHT22;3952;48.364;16.022;2023-11-21T09:57:49;9.30;99.90
7814;DHT22;3952;48.364;16.022;2023-11-21T10:00:20;9.40;99.90
7814;DHT22;3952;48.364;16.022;2023-11-21T10:02:49;9.50;99.90
7814;DHT22;3952;48.364;16.022;2023-11-21T10:05:20;9.60;99.90
7814;DHT22;3952;48.364;16.022;2023-11-21T10:07:50;9.60;99.90
7814;DHT22;3952;48.364;16.022;2023-11-21T10:10:19;9.70;99.90
7814;DHT22;3952;48.364;16.022;2023-11-21T10:12:49;9.80;99.90
7814;DHT22;3952;48.364;16.022;2023-11-21T10:15:21;9.80;99.90
7814;DHT22;3952;48.364;16.022;2023-11-21T10:17:52;9.90;99.90
7814;DHT22;3952;48.364;16.022;2023-11-21T10:20:22;10.10;99.90
7814;DHT22;3952;48.364;16.022;2023-11-21T10:22:50;10.60;99.90
7814;DHT22;3952;48.364;16.022;2023-11-21T10:25:17;11.10;99.90
7814;DHT22;3952;48.364;16.022;2023-11-21T10:27:48;11.60;99.90
7814;DHT22;3952;48.364;16.022;2023-11-21T10:30:18;11.90;99.90
7814;DHT22;3952;48.364;16.022;2023-11-21T10:32:45;12.20;99.90
7814;DHT22;3952;48.364;16.022;2023-11-21T10:35:13;12.30;99.90
7814;DHT22;3952;48.364;16.022;2023-11-21T10:37:42;12.50;99.90
7814;DHT22;3952;48.364;16.022;2023-11-21T10:40:11;12.60;99.90
7814;DHT22;3952;48.364;16.022;2023-11-21T10:42:38;12.70;99.90
7814;DHT22;3952;48.364;16.022;2023-11-21T10:45:06;12.70;99.90
7814;DHT22;3952;48.364;16.022;2023-11-21T10:47:38;12.60;99.90
7814;DHT22;3952;48.364;16.022;2023-11-21T10:50:06;12.60;99.90
7814;DHT22;3952;48.364;16.022;2023-11-21T10:52:36;12.70;99.90
7814;DHT22;3952;48.364;16.022;2023-11-21T10:55:16;12.80;99.90
7814;DHT22;3952;48.364;16.022;2023-11-21T10:57:47;12.90;99.90
7814;DHT22;3952;48.364;16.022;2023-11-21T11:00:17;13.00;99.90
7814;DHT22;3952;48.364;16.022;2023-11-21T11:02:47;13.00;99.90
7814;DHT22;3952;48.364;16.022;2023-11-21T11:05:16;13.00;99.90
7814;DHT22;3952;48.364;16.022;2023-11-21T11:07:48;13.10;99.90
7814;DHT22;3952;48.364;16.022;2023-11-21T11:10:19;13.20;99.90
7814;DHT22;3952;48.364;16.022;2023-11-21T11:12:49;13.20;99.90
7814;DHT22;3952;48.364;16.022;2023-11-21T11:15:18;13.20;99.90
7814;DHT22;3952;48.364;16.022;2023-11-21T11:17:46;13.10;99.90
7814;DHT22;3952;48.364;16.022;2023-11-21T11:20:15;13.10;99.90
7814;DHT22;3952;48.364;16.022;2023-11-21T11:22:50;13.10;99.90
7814;DHT22;3952;48.364;16.022;2023-11-21T11:25:36;13.00;99.90
7814;DHT22;3952;48.364;16.022;2023-11-21T11:28:10;13.00;99.90
7814;DHT22;3952;48.364;16.022;2023-11-21T11:30:49;13.00;99.90
7814;DHT22;3952;48.364;16.022;2023-11-21T11:33:25;13.00;99.90
7814;DHT22;3952;48.364;16.022;2023-11-21T11:36:03;13.00;99.90
7814;DHT22;3952;48.364;16.022;2023-11-21T11:38:34;13.00;99.90
7814;DHT22;3952;48.364;16.022;2023-11-21T11:41:05;13.00;99.90
7814;DHT22;3952;48.364;16.022;2023-11-21T11:43:33;13.00;99.90
7814;DHT22;3952;48.364;16.022;2023-11-21T11:46:10;13.00;99.90
7814;DHT22;3952;48.364;16.022;2023-11-21T11:48:39;12.80;99.90
7814;DHT22;3952;48.364;16.022;2023-11-21T11:51:10;12.60;99.90
7814;DHT22;3952;48.364;16.022;2023-11-21T11:53:40;12.50;99.90
7814;DHT22;3952;48.364;16.022;2023-11-21T11:56:25;12.30;99.90
7814;DHT22;3952;48.364;16.022;2023-11-21T11:58:55;12.20;99.90
7814;DHT22;3952;48.364;16.022;2023-11-21T12:01:22;12.00;99.90
7814;DHT22;3952;48.364;16.022;2023-11-21T12:07:02;11.80;99.90
7814;DHT22;3952;48.364;16.022;2023-11-21T12:09:31;11.80;99.90
7814;DHT22;3952;48.364;16.022;2023-11-21T12:12:00;11.70;99.90
7814;DHT22;3952;48.364;16.022;2023-11-21T12:14:27;11.70;99.90
7814;DHT22;3952;48.364;16.022;2023-11-21T12:16:54;11.60;99.90
7814;DHT22;3952;48.364;16.022;2023-11-21T12:19:22;11.60;99.90
7814;DHT22;3952;48.364;16.022;2023-11-21T12:21:49;11.50;99.90
7814;DHT22;3952;48.364;16.022;2023-11-21T12:24:18;11.50;99.90
7814;DHT22;3952;48.364;16.022;2023-11-21T12:26:45;11.40;99.90
7814;DHT22;3952;48.364;16.022;2023-11-21T12:29:13;11.40;99.90
7814;DHT22;3952;48.364;16.022;2023-11-21T12:31:42;11.40;99.90
7814;DHT22;3952;48.364;16.022;2023-11-21T12:34:10;11.30;99.90
7814;DHT22;3952;48.364;16.022;2023-11-21T12:36:38;11.20;99.90
7814;DHT22;3952;48.364;16.022;2023-11-21T12:39:05;11.10;99.90
7814;DHT22;3952;48.364;16.022;2023-11-21T12:41:35;11.00;99.90
7814;DHT22;3952;48.364;16.022;2023-11-21T12:44:02;10.90;99.90
7814;DHT22;3952;48.364;16.022;2023-11-21T12:46:31;10.90;99.90
7814;DHT22;3952;48.364;16.022;2023-11-21T12:49:00;10.80;99.90
7814;DHT22;3952;48.364;16.022;2023-11-21T12:51:27;10.80;99.90
7814;DHT22;3952;48.364;16.022;2023-11-21T12:53:56;10.70;99.90
7814;DHT22;3952;48.364;16.022;2023-11-21T12:56:24;10.80;99.90
7814;DHT22;3952;48.364;16.022;2023-11-21T12:58:54;10.90;99.90
7814;DHT22;3952;48.364;16.022;2023-11-21T13:01:25;10.90;99.90
7814;DHT22;3952;48.364;16.022;2023-11-21T13:03:57;10.90;99.90
7814;DHT22;3952;48.364;16.022;2023-11-21T13:06:26;11.00;99.90
7814;DHT22;3952;48.364;16.022;2023-11-21T13:08:54;11.00;99.90
7814;DHT22;3952;48.364;16.022;2023-11-21T13:11:22;11.00;99.90
7814;DHT22;3952;48.364;16.022;2023-11-21T13:13:51;11.00;99.90
7814;DHT22;3952;48.364;16.022;2023-11-21T13:16:20;11.10;99.90
7814;DHT22;3952;48.364;16.022;2023-11-21T13:18:47;11.10;99.90
7814;DHT22;3952;48.364;16.022;2023-11-21T13:21:16;11.00;99.90
7814;DHT22;3952;48.364;16.022;2023-11-21T13:23:44;11.10;99.90
7814;DHT22;3952;48.364;16.022;2023-11-21T13:26:12;11.00;99.90
7814;DHT22;3952;48.364;16.022;2023-11-21T13:28:40;11.00;99.90
7814;DHT22;3952;48.364;16.022;2023-11-21T13:31:11;11.00;99.90
7814;DHT22;3952;48.364;16.022;2023-11-21T13:33:47;10.90;99.90
7814;DHT22;3952;48.364;16.022;2023-11-21T13:36:22;10.90;99.90
7814;DHT22;3952;48.364;16.022;2023-11-21T13:38:50;10.90;99.90
7814;DHT22;3952;48.364;16.022;2023-11-21T13:41:18;10.90;99.90
7814;DHT22;3952;48.364;16.022;2023-11-21T13:43:45;10.90;99.90
7814;DHT22;3952;48.364;16.022;2023-11-21T13:46:21;10.80;99.90
7814;DHT22;3952;48.364;16.022;2023-11-21T13:48:49;10.80;99.90
7814;DHT22;3952;48.364;16.022;2023-11-21T13:51:23;10.80;99.90
7814;DHT22;3952;48.364;16.022;2023-11-21T13:54:03;10.70;99.90
7814;DHT22;3952;48.364;16.022;2023-11-21T13:56:35;10.50;99.90
7814;DHT22;3952;48.364;16.022;2023-11-21T13:59:02;10.40;99.90
7814;DHT22;3952;48.364;16.022;2023-11-21T14:01:39;10.40;99.90
7814;DHT22;3952;48.364;16.022;2023-11-21T14:04:20;10.30;99.90
7814;DHT22;3952;48.364;16.022;2023-11-21T14:07:03;10.20;99.90
7814;DHT22;3952;48.364;16.022;2023-11-21T14:09:46;10.20;99.90
7814;DHT22;3952;48.364;16.022;2023-11-21T14:12:15;10.20;99.90
7814;DHT22;3952;48.364;16.022;2023-11-21T14:14:42;10.20;99.90
7814;DHT22;3952;48.364;16.022;2023-11-21T14:17:11;10.20;99.90
7814;DHT22;3952;48.364;16.022;2023-11-21T14:19:38;10.20;99.90
7814;DHT22;3952;48.364;16.022;2023-11-21T14:22:10;10.20;99.90
7814;DHT22;3952;48.364;16.022;2023-11-21T14:24:37;10.20;99.90
7814;DHT22;3952;48.364;16.022;2023-11-21T14:27:09;10.20;99.90
7814;DHT22;3952;48.364;16.022;2023-11-21T14:29:37;10.30;99.90
7814;DHT22;3952;48.364;16.022;2023-11-21T14:32:08;10.30;99.90
7814;DHT22;3952;48.364;16.022;2023-11-21T14:34:35;10.20;99.90
7814;DHT22;3952;48.364;16.022;2023-11-21T14:37:04;10.20;99.90
7814;DHT22;3952;48.364;16.022;2023-11-21T14:39:32;10.20;99.90
7814;DHT22;3952;48.364;16.022;2023-11-21T14:42:05;10.10;99.90
7814;DHT22;3952;48.364;16.022;2023-11-21T14:44:34;10.10;99.90
7814;DHT22;3952;48.364;16.022;2023-11-21T14:47:04;10.00;99.90
7814;DHT22;3952;48.364;16.022;2023-11-21T14:49:41;10.00;99.90
7814;DHT22;3952;48.364;16.022;2023-11-21T14:52:18;10.00;99.90
7814;DHT22;3952;48.364;16.022;2023-11-21T14:55:00;10.00;99.90
7814;DHT22;3952;48.364;16.022;2023-11-21T14:57:41;9.90;99.90
7814;DHT22;3952;48.364;16.022;2023-11-21T15:00:13;9.90;99.90
7814;DHT22;3952;48.364;16.022;2023-11-21T15:02:57;9.90;99.90
7814;DHT22;3952;48.364;16.022;2023-11-21T15:05:24;9.80;99.90
7814;DHT22;3952;48.364;16.022;2023-11-21T15:07:53;9.80;99.90
7814;DHT22;3952;48.364;16.022;2023-11-21T15:10:24;9.80;99.90
7814;DHT22;3952;48.364;16.022;2023-11-21T15:13:03;9.80;99.90
7814;DHT22;3952;48.364;16.022;2023-11-21T15:15:30;9.70;99.90
7814;DHT22;3952;48.364;16.022;2023-11-21T15:18:00;9.60;99.90
7814;DHT22;3952;48.364;16.022;2023-11-21T15:20:27;9.60;99.90
7814;DHT22;3952;48.364;16.022;2023-11-21T15:22:55;9.60;99.90
7814;DHT22;3952;48.364;16.022;2023-11-21T15:25:23;9.50;99.90
7814;DHT22;3952;48.364;16.022;2023-11-21T15:27:51;9.50;99.90
7814;DHT22;3952;48.364;16.022;2023-11-21T15:30:18;9.50;99.90
7814;DHT22;3952;48.364;16.022;2023-11-21T15:32:50;9.50;99.90
7814;DHT22;3952;48.364;16.022;2023-11-21T15:35:18;9.50;99.90
7814;DHT22;3952;48.364;16.022;2023-11-21T15:37:46;9.50;99.90
7814;DHT22;3952;48.364;16.022;2023-11-21T15:40:13;9.40;99.90
7814;DHT22;3952;48.364;16.022;2023-11-21T15:42:44;9.40;99.90
7814;DHT22;3952;48.364;16.022;2023-11-21T15:45:11;9.40;99.90
7814;DHT22;3952;48.364;16.022;2023-11-21T15:47:39;9.30;99.90
7814;DHT22;3952;48.364;16.022;2023-11-21T15:50:07;9.30;99.90
7814;DHT22;3952;48.364;16.022;2023-11-21T15:52:36;9.30;99.90
7814;DHT22;3952;48.364;16.022;2023-11-21T15:55:04;9.30;99.90
7814;DHT22;3952;48.364;16.022;2023-11-21T15:57:32;9.30;99.90
7814;DHT22;3952;48.364;16.022;2023-11-21T16:00:01;9.30;99.90
7814;DHT22;3952;48.364;16.022;2023-11-21T16:02:34;9.20;99.90
7814;DHT22;3952;48.364;16.022;2023-11-21T16:05:01;9.20;99.90
7814;DHT22;3952;48.364;16.022;2023-11-21T16:07:31;9.20;99.90
7814;DHT22;3952;48.364;16.022;2023-11-21T16:09:58;9.20;99.90